TimeCST,TemperatureF,Dew PointF,Humidity,Sea Level PressureIn,VisibilityMPH,Wind Direction,Wind SpeedMPH,Gust SpeedMPH,PrecipitationIn,Events,Conditions,WindDirDegrees,DateUTC
12:34 AM,35.6,33.8,93,29.85,0.2,NW,5.8,-,N/A,Fog,Fog,320,2012-12-09 06:34:00
12:52 AM,35.1,34.0,96,29.86,0.2,NW,3.5,-,N/A,Fog,Fog,310,2012-12-09 06:52:00
1:52 AM,35.1,34.0,96,29.87,0.2,NNW,9.2,-,N/A,Fog,Fog,330,2012-12-09 07:52:00
2:07 AM,35.6,33.8,93,29.85,0.5,NNW,9.2,-,N/A,Fog,Fog,340,2012-12-09 08:07:00
2:42 AM,35.6,33.8,93,29.86,0.2,NNW,11.5,-,N/A,Fog,Fog,340,2012-12-09 08:42:00
2:49 AM,35.6,33.8,93,29.87,0.5,NNW,11.5,-,N/A,Fog,Fog,340,2012-12-09 08:49:00
2:52 AM,34.0,33.1,96,29.89,0.5,NNW,10.4,-,N/A,Fog,Fog,340,2012-12-09 08:52:00
3:05 AM,33.8,32.0,93,29.87,1.5,NNW,8.1,-,N/A,,Overcast,340,2012-12-09 09:05:00
3:16 AM,32.0,30.2,93,29.88,3.0,NNW,8.1,-,N/A,,Mostly Cloudy,340,2012-12-09 09:16:00
3:24 AM,30.2,30.2,100,29.88,5.0,NNW,6.9,-,N/A,,Scattered Clouds,330,2012-12-09 09:24:00
3:52 AM,28.9,26.1,89,29.92,7.0,NNW,6.9,-,N/A,,Clear,340,2012-12-09 09:52:00
4:52 AM,30.0,21.9,72,29.94,10.0,NNW,10.4,-,N/A,,Mostly Cloudy,340,2012-12-09 10:52:00
5:52 AM,33.1,18.0,54,29.97,10.0,North,18.4,24.2,N/A,,Overcast,350,2012-12-09 11:52:00
6:52 AM,33.1,9.0,37,29.99,10.0,North,19.6,36.8,N/A,,Overcast,350,2012-12-09 12:52:00
7:52 AM,32.0,7.0,35,30.02,10.0,NNW,21.9,31.1,N/A,,Overcast,340,2012-12-09 13:52:00
8:52 AM,30.0,6.1,36,30.05,10.0,NNW,27.6,35.7,N/A,,Overcast,340,2012-12-09 14:52:00
9:52 AM,28.0,6.1,39,30.09,10.0,NNW,26.5,38.0,N/A,,Overcast,340,2012-12-09 15:52:00
10:52 AM,27.0,6.1,41,30.12,10.0,North,29.9,35.7,N/A,,Overcast,350,2012-12-09 16:52:00
11:52 AM,26.6,6.8,43,30.08,10.0,North,25.3,38.0,N/A,,Overcast,350,2012-12-09 17:52:00
12:52 PM,27.0,6.1,41,30.12,10.0,NNW,24.2,32.2,N/A,,Overcast,340,2012-12-09 18:52:00
1:52 PM,27.0,6.1,41,30.13,10.0,NNW,23.0,31.1,N/A,,Overcast,340,2012-12-09 19:52:00
2:52 PM,28.0,5.0,38,30.12,10.0,NNW,18.4,33.4,N/A,,Overcast,340,2012-12-09 20:52:00
3:52 PM,27.0,5.0,39,30.16,10.0,NNW,19.6,33.4,N/A,,Overcast,340,2012-12-09 21:52:00
4:52 PM,27.0,5.0,39,30.16,10.0,NNW,23.0,31.1,N/A,,Overcast,340,2012-12-09 22:52:00
5:52 PM,25.0,3.9,41,30.18,10.0,North,20.7,31.1,N/A,,Overcast,350,2012-12-09 23:52:00
6:52 PM,24.1,3.0,40,30.22,10.0,North,24.2,29.9,N/A,,Mostly Cloudy,350,2012-12-10 00:52:00
7:52 PM,21.9,3.0,44,30.26,10.0,North,20.7,29.9,N/A,,Mostly Cloudy,350,2012-12-10 01:52:00
8:52 PM,19.9,3.0,48,30.29,10.0,North,19.6,27.6,N/A,,Partly Cloudy,350,2012-12-10 02:52:00
9:52 PM,18.0,1.9,50,30.28,10.0,NNW,18.4,32.2,N/A,,Clear,340,2012-12-10 03:52:00
10:52 PM,16.0,-0.0,49,30.28,10.0,NNW,17.3,32.2,N/A,,Clear,340,2012-12-10 04:52:00
11:52 PM,12.9,-2.0,51,30.29,10.0,NNW,13.8,20.7,N/A,,Clear,340,2012-12-10 05:52:00